CheckWX is a tool to help pilots better visualize weather data.  It is not intended as a substitute for an official pre-flight weather briefing.

21:00:09 UTC

KBKF METAR
Buckley AFB Airport
Aurora, Colorado, USA
Current

1 hour ago

KBKF 201958Z 09007G17KT 030V120 10SM SCT060 SCT110 BKN200 25/M08 A2985 RMK AO2A SLP041 T02541085
Observed
Apr-20 @ 19:58 UTC
Wind
  • 090° at 7 KTS
  • Gusting to 17 KTS
Visibility
10 SM
Flight Rules
VFR
Cloud Levels
  • Scattered at 6,000' AGL
  • Scattered at 11,000' AGL
  • Broken at 20,000' AGL
Temperature
25°C / 77°F
Dewpoint
-9°C / 16°F
Humidity
10%
Altimeter
29.85" Hg
Pressure
1010.82 hPa
Previous

2 hours ago

KBKF 201858Z 00000KT 10SM FEW060 SCT110 BKN220 25/M10 A2988 RMK AO2A SLP052 T02501101
Observed
Apr-20 @ 18:58 UTC
Visibility
10 SM
Flight Rules
VFR
Cloud Levels
  • Few at 6,000' AGL
  • Scattered at 11,000' AGL
  • Broken at 22,000' AGL
Temperature
25°C / 77°F
Dewpoint
-10°C / 14°F
Humidity
9%
Altimeter
29.88" Hg
Pressure
1011.82 hPa
Previous

3 hours ago

KBKF 201758Z 08005KT 10SM FEW110 BKN220 24/M08 A2992 RMK AO2A SLP066 T02421081 10242 20085 57017
Observed
Apr-20 @ 17:58 UTC
Wind
  • 080° at 5 KTS
Visibility
10 SM
Flight Rules
VFR
Cloud Levels
  • Few at 11,000' AGL
  • Broken at 22,000' AGL
Temperature
24°C / 75°F
Dewpoint
-8°C / 18°F
Humidity
11%
Altimeter
29.92" Hg
Pressure
1013.22 hPa